createdAt,value
2017-12-24T00:01:16.528Z,0
2017-12-24T00:03:18.364Z,0
2017-12-24T00:05:20.261Z,0
2017-12-24T00:07:22.213Z,0
2017-12-24T00:09:24.098Z,0
2017-12-24T00:11:27.123Z,0
2017-12-24T00:13:30.104Z,0
2017-12-24T00:15:31.964Z,0
2017-12-24T00:17:33.941Z,0
2017-12-24T00:19:36.763Z,0
2017-12-24T00:21:38.567Z,0
2017-12-24T00:23:40.355Z,0
2017-12-24T00:25:42.305Z,0
2017-12-24T00:27:43.993Z,0
2017-12-24T00:29:45.756Z,0
2017-12-24T00:31:47.584Z,0
2017-12-24T00:33:49.413Z,0
2017-12-24T00:35:51.194Z,0
2017-12-24T00:37:52.939Z,0
2017-12-24T00:39:54.617Z,0
2017-12-24T00:41:56.374Z,0
2017-12-24T00:43:58.317Z,0
2017-12-24T00:46:00.170Z,0
2017-12-24T00:48:02.905Z,0
2017-12-24T00:50:04.706Z,0
2017-12-24T00:52:06.562Z,0
2017-12-24T00:54:09.193Z,0
2017-12-24T00:56:12.102Z,0
2017-12-24T00:58:13.995Z,0
2017-12-24T01:00:15.683Z,0
2017-12-24T01:02:17.516Z,0
2017-12-24T01:04:20.141Z,0
2017-12-24T01:06:21.915Z,0
2017-12-24T01:08:24.524Z,0
2017-12-24T01:10:26.277Z,0
2017-12-24T01:12:28.208Z,0
2017-12-24T01:14:30.069Z,0
2017-12-24T01:16:32.809Z,0
2017-12-24T01:18:34.677Z,0
2017-12-24T01:20:36.574Z,0
2017-12-24T01:22:38.449Z,0
2017-12-24T01:24:40.987Z,0
2017-12-24T01:26:43.380Z,0
2017-12-24T01:28:45.119Z,0
2017-12-24T01:30:46.973Z,0
2017-12-24T01:32:48.983Z,0
2017-12-24T01:34:50.845Z,0
2017-12-24T01:36:53.570Z,0
2017-12-24T01:38:55.928Z,0
2017-12-24T01:40:57.841Z,0
2017-12-24T01:43:00.945Z,0
2017-12-24T01:45:04.280Z,0
2017-12-24T01:47:05.812Z,0
2017-12-24T01:49:07.578Z,0
2017-12-24T01:51:11.175Z,0
2017-12-24T01:53:14.068Z,0
2017-12-24T01:55:15.802Z,0
2017-12-24T01:57:17.786Z,0
2017-12-24T01:59:19.554Z,0
2017-12-24T02:01:21.467Z,0
2017-12-24T02:03:23.383Z,0
2017-12-24T02:05:25.226Z,0
2017-12-24T02:07:27.039Z,0
2017-12-24T02:09:28.867Z,0
2017-12-24T02:11:30.965Z,0
2017-12-24T02:13:32.861Z,0
2017-12-24T02:15:34.751Z,0
2017-12-24T02:17:36.474Z,0
2017-12-24T02:19:38.208Z,0
2017-12-24T02:21:41.214Z,0
2017-12-24T02:23:42.962Z,0
2017-12-24T02:25:45.700Z,0
2017-12-24T02:27:47.460Z,0
2017-12-24T02:29:49.145Z,0
2017-12-24T02:31:50.842Z,0
2017-12-24T02:33:52.597Z,0
2017-12-24T02:35:54.491Z,0
2017-12-24T02:37:56.278Z,0
2017-12-24T02:39:59.821Z,0
2017-12-24T02:42:01.724Z,0
2017-12-24T02:44:03.450Z,0
2017-12-24T02:46:05.246Z,0
2017-12-24T02:48:07.793Z,0
2017-12-24T02:50:09.546Z,0
2017-12-24T02:52:12.129Z,0
2017-12-24T02:54:14.749Z,0
2017-12-24T02:56:16.566Z,0
2017-12-24T02:58:18.312Z,0
2017-12-24T03:00:21.161Z,0
2017-12-24T03:02:22.955Z,0
2017-12-24T03:04:24.760Z,0
2017-12-24T03:06:26.577Z,0
2017-12-24T03:08:28.264Z,0
2017-12-24T03:10:30.145Z,0
2017-12-24T03:12:32.046Z,0
2017-12-24T03:14:33.842Z,0
2017-12-24T03:16:36.485Z,0
2017-12-24T03:18:38.219Z,0
2017-12-24T03:20:40.125Z,0
2017-12-24T03:22:41.978Z,0
2017-12-24T03:24:44.475Z,0
2017-12-24T03:26:46.335Z,0
2017-12-24T03:28:48.145Z,0
2017-12-24T03:30:50.719Z,0
2017-12-24T03:32:52.544Z,0
2017-12-24T03:34:55.293Z,0
2017-12-24T03:36:57.501Z,0
2017-12-24T03:39:00.616Z,0
2017-12-24T03:41:02.376Z,0
2017-12-24T03:43:04.153Z,0
2017-12-24T03:45:05.972Z,0
2017-12-24T03:47:07.668Z,0
2017-12-24T03:49:09.901Z,0
2017-12-24T03:51:11.689Z,0
2017-12-24T03:53:13.562Z,0
2017-12-24T03:55:15.360Z,0
2017-12-24T03:57:17.159Z,0
2017-12-24T03:59:19.146Z,0
2017-12-24T04:01:21.748Z,0
2017-12-24T04:03:23.626Z,0
2017-12-24T04:05:26.043Z,0
2017-12-24T04:07:27.966Z,0
2017-12-24T04:09:30.600Z,0
2017-12-24T04:11:32.488Z,0
2017-12-24T04:13:34.295Z,0
2017-12-24T04:15:36.805Z,0
2017-12-24T04:17:39.543Z,0
2017-12-24T04:19:41.432Z,0
2017-12-24T04:21:43.082Z,0
2017-12-24T04:23:44.904Z,0
2017-12-24T04:25:46.764Z,0
2017-12-24T04:27:49.466Z,0
2017-12-24T04:29:51.985Z,0
2017-12-24T04:31:54.216Z,0
2017-12-24T04:33:56.066Z,0
2017-12-24T04:35:58.779Z,0
2017-12-24T04:38:00.712Z,0
2017-12-24T04:40:02.610Z,0
2017-12-24T04:42:04.986Z,0
2017-12-24T04:44:06.719Z,0
2017-12-24T04:46:08.468Z,0
2017-12-24T04:48:10.331Z,0
2017-12-24T04:50:12.182Z,0
2017-12-24T04:52:14.034Z,0
2017-12-24T04:54:15.804Z,0
2017-12-24T04:56:17.547Z,0
2017-12-24T04:58:19.346Z,0
2017-12-24T05:00:21.151Z,0
2017-12-24T05:02:23.442Z,0
2017-12-24T05:04:25.954Z,0
2017-12-24T05:06:28.002Z,0
2017-12-24T05:08:29.824Z,0
2017-12-24T05:10:31.749Z,0
2017-12-24T05:12:33.702Z,0
2017-12-24T05:14:35.578Z,0
2017-12-24T05:16:37.367Z,0
2017-12-24T05:18:39.211Z,0
2017-12-24T05:20:41.081Z,0
2017-12-24T05:22:42.835Z,0
2017-12-24T05:24:44.582Z,0
2017-12-24T05:26:46.529Z,0
2017-12-24T05:28:49.226Z,0
2017-12-24T05:30:51.683Z,0
2017-12-24T05:32:53.465Z,0
2017-12-24T05:34:55.323Z,0
2017-12-24T05:36:57.329Z,0
2017-12-24T05:38:59.144Z,0
2017-12-24T05:41:01.071Z,0
2017-12-24T05:43:02.972Z,0
2017-12-24T05:45:04.787Z,0
2017-12-24T05:47:06.602Z,0
2017-12-24T05:49:08.331Z,0
2017-12-24T05:51:10.056Z,0
2017-12-24T05:53:12.859Z,0
2017-12-24T05:55:15.337Z,0
2017-12-24T05:57:17.679Z,0
2017-12-24T05:59:19.438Z,0
2017-12-24T06:01:21.209Z,0
2017-12-24T06:03:22.993Z,0
2017-12-24T06:05:26.020Z,0
2017-12-24T06:07:28.512Z,0
2017-12-24T06:09:30.544Z,0
2017-12-24T06:11:33.259Z,0
2017-12-24T06:13:34.959Z,0
2017-12-24T06:15:36.808Z,0
2017-12-24T06:17:38.595Z,0
2017-12-24T06:19:40.435Z,0
2017-12-24T06:21:42.364Z,0
2017-12-24T06:23:44.237Z,0
2017-12-24T06:25:46.079Z,0
2017-12-24T06:27:47.899Z,0
2017-12-24T06:29:49.664Z,0
2017-12-24T06:31:51.632Z,0
2017-12-24T06:33:53.529Z,0
2017-12-24T06:35:58.452Z,0
2017-12-24T06:38:01.633Z,0
2017-12-24T06:40:04.447Z,0
2017-12-24T06:42:06.247Z,0
2017-12-24T06:44:08.070Z,0
2017-12-24T06:46:09.897Z,0
2017-12-24T06:48:11.683Z,0
2017-12-24T06:50:13.586Z,0
2017-12-24T06:52:15.458Z,0
2017-12-24T06:54:18.303Z,0
2017-12-24T06:56:20.368Z,0
2017-12-24T06:58:22.177Z,0
2017-12-24T07:00:24.947Z,0
2017-12-24T07:02:26.428Z,0
2017-12-24T07:04:28.351Z,0
2017-12-24T07:06:31.172Z,0
2017-12-24T07:08:32.956Z,0
2017-12-24T07:10:34.834Z,0
2017-12-24T07:12:36.881Z,0
2017-12-24T07:14:39.585Z,0
2017-12-24T07:16:42.455Z,0
2017-12-24T07:18:45.009Z,0
2017-12-24T07:20:47.584Z,4
2017-12-24T07:22:49.519Z,0
2017-12-24T07:24:51.158Z,0
2017-12-24T07:26:53.095Z,0
2017-12-24T07:28:55.663Z,4
2017-12-24T07:30:57.561Z,4
2017-12-24T07:33:00.418Z,0
2017-12-24T07:35:03.250Z,4
2017-12-24T07:37:05.095Z,4
2017-12-24T07:39:07.759Z,8
2017-12-24T07:41:09.589Z,4
2017-12-24T07:43:11.574Z,8
2017-12-24T07:45:13.298Z,8
2017-12-24T07:47:15.284Z,12
2017-12-24T07:49:18.185Z,12
2017-12-24T07:51:20.037Z,16
2017-12-24T07:53:21.971Z,16
2017-12-24T07:55:23.741Z,20
2017-12-24T07:57:26.789Z,24
2017-12-24T07:59:28.547Z,24
2017-12-24T08:01:30.408Z,24
2017-12-24T08:03:32.195Z,28
2017-12-24T08:05:34.644Z,20
2017-12-24T08:07:36.574Z,24
2017-12-24T08:09:38.571Z,24
2017-12-24T08:11:40.377Z,28
2017-12-24T08:13:42.169Z,32
2017-12-24T08:15:44.791Z,32
2017-12-24T08:17:46.654Z,36
2017-12-24T08:19:48.455Z,36
2017-12-24T08:21:50.256Z,40
2017-12-24T08:23:52.036Z,44
2017-12-24T08:25:53.860Z,48
2017-12-24T08:27:55.707Z,56
2017-12-24T08:29:58.015Z,56
2017-12-24T08:32:00.133Z,68
2017-12-24T08:34:02.233Z,68
2017-12-24T08:36:04.052Z,68
2017-12-24T08:38:05.892Z,76
2017-12-24T08:40:08.736Z,76
2017-12-24T08:42:10.491Z,84
2017-12-24T08:44:12.429Z,88
2017-12-24T08:46:14.276Z,92
2017-12-24T08:48:16.968Z,104
2017-12-24T08:50:18.855Z,112
2017-12-24T08:52:25.967Z,108
2017-12-24T08:54:28.449Z,108
2017-12-24T08:56:30.607Z,104
2017-12-24T08:58:35.176Z,112
2017-12-24T09:00:37.525Z,112
2017-12-24T09:02:41.527Z,128
2017-12-24T09:04:44.372Z,128
2017-12-24T09:06:46.292Z,144
2017-12-24T09:08:48.901Z,152
2017-12-24T09:10:53.006Z,160
2017-12-24T09:12:54.666Z,160
2017-12-24T09:14:56.484Z,144
2017-12-24T09:16:59.562Z,148
2017-12-24T09:19:01.549Z,148
2017-12-24T09:21:04.384Z,136
2017-12-24T09:23:07.026Z,136
2017-12-24T09:25:08.807Z,104
2017-12-24T09:27:10.682Z,108
2017-12-24T09:29:12.506Z,96
2017-12-24T09:31:14.279Z,96
2017-12-24T09:33:16.067Z,84
2017-12-24T09:35:18.025Z,84
2017-12-24T09:37:19.831Z,96
2017-12-24T09:39:21.732Z,104
2017-12-24T09:41:23.684Z,100
2017-12-24T09:43:26.204Z,96
2017-12-24T09:45:29.061Z,100
2017-12-24T09:47:30.859Z,92
2017-12-24T09:49:32.829Z,104
2017-12-24T09:51:34.796Z,96
2017-12-24T09:53:36.646Z,108
2017-12-24T09:55:39.256Z,108
2017-12-24T09:57:40.997Z,92
2017-12-24T09:59:42.772Z,88
2017-12-24T10:01:45.355Z,84
2017-12-24T10:03:47.946Z,92
2017-12-24T10:05:49.771Z,96
2017-12-24T10:07:51.675Z,108
2017-12-24T10:09:54.254Z,96
2017-12-24T10:11:56.015Z,88
2017-12-24T10:13:58.261Z,100
2017-12-24T10:16:00.421Z,96
2017-12-24T10:18:02.249Z,88
2017-12-24T10:20:04.038Z,88
2017-12-24T10:22:05.891Z,88
2017-12-24T10:24:07.638Z,84
2017-12-24T10:26:10.095Z,88
2017-12-24T10:28:11.799Z,88
2017-12-24T10:30:14.296Z,88
2017-12-24T10:32:16.123Z,96
2017-12-24T10:34:18.839Z,104
2017-12-24T10:36:20.777Z,104
2017-12-24T10:38:22.603Z,128
2017-12-24T10:40:24.507Z,120
2017-12-24T10:42:26.185Z,116
2017-12-24T10:44:28.216Z,120
2017-12-24T10:46:30.023Z,116
2017-12-24T10:48:31.966Z,120
2017-12-24T10:50:33.851Z,116
2017-12-24T10:52:35.769Z,120
2017-12-24T10:54:37.797Z,120
2017-12-24T10:56:39.529Z,124
2017-12-24T10:58:41.479Z,108
2017-12-24T11:00:43.269Z,100
2017-12-24T11:02:44.977Z,92
2017-12-24T11:04:46.736Z,96
2017-12-24T11:06:48.596Z,100
2017-12-24T11:08:51.004Z,92
2017-12-24T11:10:52.901Z,88
2017-12-24T11:12:54.729Z,84
2017-12-24T11:14:57.208Z,88
2017-12-24T11:16:59.043Z,92
2017-12-24T11:19:00.801Z,104
2017-12-24T11:21:03.762Z,96
2017-12-24T11:23:05.370Z,108
2017-12-24T11:25:07.873Z,116
2017-12-24T11:27:09.679Z,112
2017-12-24T11:29:11.375Z,172
2017-12-24T11:31:13.281Z,156
2017-12-24T11:33:15.137Z,172
2017-12-24T11:35:17.110Z,224
2017-12-24T11:37:19.071Z,224
2017-12-24T11:39:20.895Z,212
2017-12-24T11:41:22.713Z,228
2017-12-24T11:43:25.300Z,276
2017-12-24T11:45:27.189Z,224
2017-12-24T11:47:30.132Z,228
2017-12-24T11:49:31.897Z,212
2017-12-24T11:51:33.790Z,212
2017-12-24T11:53:35.492Z,212
2017-12-24T11:55:37.327Z,244
2017-12-24T11:57:39.343Z,224
2017-12-24T11:59:41.118Z,244
2017-12-24T12:01:42.781Z,240
2017-12-24T12:03:44.561Z,192
2017-12-24T12:05:46.443Z,228
2017-12-24T12:07:49.386Z,212
2017-12-24T12:09:51.158Z,232
2017-12-24T12:11:53.057Z,216
2017-12-24T12:13:54.877Z,200
2017-12-24T12:15:56.639Z,200
2017-12-24T12:17:59.576Z,200
2017-12-24T12:20:01.446Z,176
2017-12-24T12:22:03.237Z,180
2017-12-24T12:24:05.118Z,168
2017-12-24T12:26:06.844Z,200
2017-12-24T12:28:08.850Z,188
2017-12-24T12:30:10.668Z,280
2017-12-24T12:32:12.450Z,256
2017-12-24T12:34:14.158Z,276
2017-12-24T12:36:56.596Z,296
2017-12-24T12:38:58.014Z,264
2017-12-24T12:40:59.427Z,228
2017-12-24T12:43:00.850Z,212
2017-12-24T12:45:02.279Z,192
2017-12-24T12:47:03.681Z,188
2017-12-24T12:49:05.101Z,192
2017-12-24T12:51:06.549Z,176
2017-12-24T12:53:07.986Z,156
2017-12-24T12:55:09.442Z,172
2017-12-24T12:57:51.839Z,152
2017-12-24T12:59:53.401Z,148
2017-12-24T13:01:54.776Z,144
2017-12-24T13:03:56.193Z,108
2017-12-24T13:05:57.615Z,104
2017-12-24T13:07:59.017Z,100
2017-12-24T13:10:00.441Z,112
2017-12-24T13:12:01.900Z,92
2017-12-24T13:14:03.342Z,108
2017-12-24T13:16:04.750Z,128
2017-12-24T13:18:06.163Z,116
2017-12-24T13:20:07.578Z,112
2017-12-24T13:22:09.079Z,152
2017-12-24T13:24:10.483Z,160
2017-12-24T13:26:11.899Z,116
2017-12-24T13:28:13.329Z,112
2017-12-24T13:30:14.741Z,128
2017-12-24T13:32:16.151Z,124
2017-12-24T13:34:17.638Z,140
2017-12-24T13:36:18.998Z,188
2017-12-24T13:38:20.413Z,160
2017-12-24T13:40:21.852Z,132
2017-12-24T13:42:23.269Z,172
2017-12-24T13:44:24.742Z,120
2017-12-24T13:46:26.153Z,144
2017-12-24T13:48:27.671Z,124
2017-12-24T13:50:29.136Z,104
2017-12-24T13:52:30.652Z,96
2017-12-24T13:54:32.238Z,96
2017-12-24T13:57:14.644Z,96
2017-12-24T13:59:16.060Z,104
2017-12-24T14:01:17.474Z,108
2017-12-24T14:03:18.890Z,108
2017-12-24T14:05:20.304Z,88
2017-12-24T14:07:21.718Z,100
2017-12-24T14:09:23.132Z,100
2017-12-24T14:11:24.566Z,108
2017-12-24T14:13:27.345Z,100
2017-12-24T14:15:28.777Z,88
2017-12-24T14:17:30.182Z,72
2017-12-24T14:19:31.608Z,68
2017-12-24T14:21:33.042Z,68
2017-12-24T14:23:34.621Z,68
2017-12-24T14:25:36.119Z,56
2017-12-24T14:27:37.618Z,48
2017-12-24T14:29:39.051Z,40
2017-12-24T14:31:40.470Z,40
2017-12-24T14:33:42.207Z,40
2017-12-24T14:35:43.792Z,48
2017-12-24T14:37:45.564Z,48
2017-12-24T14:39:47.107Z,36
2017-12-24T14:41:48.637Z,48
2017-12-24T14:43:50.460Z,48
2017-12-24T14:45:52.035Z,40
2017-12-24T14:47:53.562Z,32
2017-12-24T14:49:55.108Z,36
2017-12-24T14:51:56.824Z,32
2017-12-24T14:53:58.328Z,32
2017-12-24T14:55:59.877Z,28
2017-12-24T14:58:42.352Z,24
2017-12-24T15:00:43.774Z,20
2017-12-24T15:02:45.179Z,24
2017-12-24T15:04:46.609Z,20
2017-12-24T15:06:48.017Z,16
2017-12-24T15:08:49.433Z,16
2017-12-24T15:10:50.847Z,12
2017-12-24T15:12:52.254Z,16
2017-12-24T15:14:53.749Z,12
2017-12-24T15:17:36.221Z,16
2017-12-24T15:19:37.690Z,16
2017-12-24T15:21:39.075Z,12
2017-12-24T15:23:40.533Z,12
2017-12-24T15:25:41.899Z,12
2017-12-24T15:27:43.342Z,8
2017-12-24T15:29:44.748Z,8
2017-12-24T15:31:46.173Z,8
2017-12-24T15:33:47.591Z,4
2017-12-24T15:35:49.029Z,4
2017-12-24T15:37:50.527Z,4
2017-12-24T15:39:51.931Z,4
2017-12-24T15:41:53.346Z,4
2017-12-24T15:43:54.766Z,4
2017-12-24T15:45:56.175Z,0
2017-12-24T15:47:57.586Z,0
2017-12-24T15:49:59.000Z,0
2017-12-24T15:52:00.411Z,0
2017-12-24T15:54:01.865Z,0
2017-12-24T15:56:03.238Z,0
2017-12-24T15:58:04.654Z,0
2017-12-24T16:00:06.063Z,0
2017-12-24T16:02:07.571Z,0
2017-12-24T16:04:08.983Z,0
2017-12-24T16:06:10.593Z,0
2017-12-24T16:08:12.358Z,0
2017-12-24T16:10:13.779Z,0
2017-12-24T16:12:15.293Z,0
2017-12-24T16:14:16.795Z,0
2017-12-24T16:16:18.297Z,0
2017-12-24T16:19:00.719Z,0
2017-12-24T16:21:02.125Z,0
2017-12-24T16:23:03.733Z,0
2017-12-24T16:25:05.152Z,0
2017-12-24T16:27:06.572Z,0
2017-12-24T16:29:08.343Z,0
2017-12-24T16:31:10.062Z,0
2017-12-24T16:33:11.500Z,0
2017-12-24T16:35:13.003Z,0
2017-12-24T16:37:14.511Z,0
2017-12-24T16:39:16.023Z,0
2017-12-24T16:41:17.620Z,0
2017-12-24T16:43:19.099Z,0
2017-12-24T16:45:20.684Z,0
2017-12-24T16:47:22.242Z,0
2017-12-24T16:49:23.734Z,0
2017-12-24T16:51:25.286Z,0
2017-12-24T16:53:26.871Z,0
2017-12-24T16:55:28.342Z,0
2017-12-24T16:58:10.765Z,0
2017-12-24T17:00:12.182Z,0
2017-12-24T17:02:13.592Z,0
2017-12-24T17:04:15.101Z,0
2017-12-24T17:06:16.491Z,0
2017-12-24T17:08:17.906Z,0
2017-12-24T17:10:19.408Z,0
2017-12-24T17:12:20.797Z,0
2017-12-24T17:14:22.238Z,0
2017-12-24T17:16:23.656Z,0
2017-12-24T17:18:25.062Z,0
2017-12-24T17:20:26.491Z,0
2017-12-24T17:22:27.883Z,0
2017-12-24T17:24:29.362Z,0
2017-12-24T17:26:30.819Z,0
2017-12-24T17:28:32.218Z,0
2017-12-24T17:30:33.625Z,0
2017-12-24T17:32:35.065Z,0
2017-12-24T17:34:36.513Z,0
2017-12-24T17:36:38.240Z,0
2017-12-24T17:39:20.644Z,0
2017-12-24T17:41:22.066Z,0
2017-12-24T17:43:23.477Z,0
2017-12-24T17:45:24.896Z,0
2017-12-24T17:47:26.308Z,0
2017-12-24T17:49:27.730Z,0
2017-12-24T17:51:29.150Z,0
2017-12-24T17:53:30.563Z,0
2017-12-24T17:55:31.978Z,0
2017-12-24T17:58:14.465Z,0
2017-12-24T18:00:15.868Z,0
2017-12-24T18:02:17.283Z,0
2017-12-24T18:04:18.795Z,0
2017-12-24T18:06:20.219Z,0
2017-12-24T18:08:21.729Z,0
2017-12-24T18:10:23.169Z,0
2017-12-24T18:12:24.592Z,0
2017-12-24T18:14:26.070Z,0
2017-12-24T18:16:27.741Z,0
2017-12-24T18:19:10.145Z,0
2017-12-24T18:21:11.572Z,0
2017-12-24T18:23:12.979Z,0
2017-12-24T18:25:14.393Z,0
2017-12-24T18:27:15.805Z,0
2017-12-24T18:29:17.301Z,0
2017-12-24T18:31:18.728Z,0
2017-12-24T18:33:20.230Z,0
2017-12-24T18:35:21.636Z,0
2017-12-24T18:37:23.054Z,0
2017-12-24T18:39:24.558Z,0
2017-12-24T18:41:26.039Z,0
2017-12-24T18:43:27.563Z,0
2017-12-24T18:45:29.057Z,0
2017-12-24T18:47:30.856Z,0
2017-12-24T18:49:32.400Z,0
2017-12-24T18:51:33.997Z,0
2017-12-24T18:53:35.743Z,0
2017-12-24T18:55:37.234Z,0
2017-12-24T18:57:38.869Z,0
2017-12-24T19:00:21.328Z,0
2017-12-24T19:02:22.796Z,0
2017-12-24T19:04:24.222Z,0
2017-12-24T19:06:25.795Z,0
2017-12-24T19:08:27.170Z,0
2017-12-24T19:10:28.582Z,0
2017-12-24T19:12:30.052Z,0
2017-12-24T19:14:31.536Z,0
2017-12-24T19:16:32.934Z,0
2017-12-24T19:18:34.618Z,0
2017-12-24T19:20:36.088Z,0
2017-12-24T19:22:37.615Z,0
2017-12-24T19:24:39.242Z,0
2017-12-24T19:26:40.643Z,0
2017-12-24T19:28:42.391Z,0
2017-12-24T19:30:43.889Z,0
2017-12-24T19:32:45.379Z,0
2017-12-24T19:34:47.005Z,0
2017-12-24T19:36:48.512Z,0
2017-12-24T19:39:30.914Z,0
2017-12-24T19:41:32.331Z,0
2017-12-24T19:43:33.738Z,0
2017-12-24T19:45:35.151Z,0
2017-12-24T19:47:36.563Z,0
2017-12-24T19:49:37.976Z,0
2017-12-24T19:51:39.401Z,0
2017-12-24T19:53:40.805Z,0
2017-12-24T19:55:42.260Z,0
2017-12-24T19:57:43.689Z,0
2017-12-24T20:00:26.085Z,0
2017-12-24T20:02:27.518Z,0
2017-12-24T20:04:28.923Z,0
2017-12-24T20:06:30.334Z,0
2017-12-24T20:08:31.746Z,0
2017-12-24T20:10:33.180Z,0
2017-12-24T20:12:34.733Z,0
2017-12-24T20:14:36.214Z,0
2017-12-24T20:16:37.612Z,0
2017-12-24T20:18:39.082Z,0
2017-12-24T20:20:40.548Z,0
2017-12-24T20:22:41.962Z,0
2017-12-24T20:24:43.441Z,0
2017-12-24T20:26:45.006Z,0
2017-12-24T20:28:46.512Z,0
2017-12-24T20:30:47.982Z,0
2017-12-24T20:32:49.606Z,0
2017-12-24T20:34:51.296Z,0
2017-12-24T20:36:52.863Z,0
2017-12-24T20:39:35.280Z,0
2017-12-24T20:41:36.711Z,0
2017-12-24T20:43:38.119Z,0
2017-12-24T20:45:39.559Z,0
2017-12-24T20:47:40.969Z,0
2017-12-24T20:49:42.400Z,0
2017-12-24T20:51:43.836Z,0
2017-12-24T20:53:45.242Z,0
2017-12-24T20:55:46.663Z,0
2017-12-24T20:57:48.095Z,0
2017-12-24T20:59:49.619Z,0
2017-12-24T21:01:51.112Z,0
2017-12-24T21:03:52.604Z,0
2017-12-24T21:05:54.412Z,0
2017-12-24T21:07:56.066Z,0
2017-12-24T21:09:57.554Z,0
2017-12-24T21:11:59.154Z,0
2017-12-24T21:14:00.671Z,0
2017-12-24T21:16:02.217Z,0
2017-12-24T21:18:03.861Z,0
2017-12-24T21:20:46.230Z,0
2017-12-24T21:22:47.650Z,0
2017-12-24T21:24:49.077Z,0
2017-12-24T21:26:50.498Z,0
2017-12-24T21:28:51.902Z,0
2017-12-24T21:30:53.319Z,0
2017-12-24T21:32:54.778Z,0
2017-12-24T21:34:56.198Z,0
2017-12-24T21:36:57.617Z,0
2017-12-24T21:38:59.081Z,0
2017-12-24T21:41:41.543Z,0
2017-12-24T21:43:42.918Z,0
2017-12-24T21:45:44.373Z,0
2017-12-24T21:47:45.839Z,0
2017-12-24T21:49:47.247Z,0
2017-12-24T21:51:48.664Z,0
2017-12-24T21:53:50.139Z,0
2017-12-24T21:55:51.733Z,0
2017-12-24T21:57:53.089Z,0
2017-12-24T22:00:35.585Z,0
2017-12-24T22:02:37.067Z,0
2017-12-24T22:04:38.489Z,0
2017-12-24T22:06:39.891Z,0
2017-12-24T22:08:41.304Z,0
2017-12-24T22:10:42.714Z,0
2017-12-24T22:12:44.128Z,0
2017-12-24T22:14:45.533Z,0
2017-12-24T22:16:46.959Z,0
2017-12-24T22:18:48.363Z,0
2017-12-24T22:21:30.815Z,0
2017-12-24T22:23:32.282Z,0
2017-12-24T22:25:33.692Z,0
2017-12-24T22:27:35.092Z,0
2017-12-24T22:29:36.514Z,0
2017-12-24T22:31:37.924Z,0
2017-12-24T22:33:39.338Z,0
2017-12-24T22:35:40.752Z,0
2017-12-24T22:37:42.156Z,0
2017-12-24T22:39:43.570Z,0
2017-12-24T22:41:44.985Z,0
2017-12-24T22:43:46.398Z,0
2017-12-24T22:45:47.868Z,0
2017-12-24T22:47:49.330Z,0
2017-12-24T22:49:50.757Z,0
2017-12-24T22:51:52.166Z,0
2017-12-24T22:53:53.578Z,0
2017-12-24T22:55:54.981Z,0
2017-12-24T22:57:56.406Z,0
2017-12-24T22:59:57.833Z,0
2017-12-24T23:01:59.240Z,0
2017-12-24T23:04:00.692Z,0
2017-12-24T23:06:02.120Z,0
2017-12-24T23:08:03.537Z,0
2017-12-24T23:10:04.956Z,0
2017-12-24T23:12:06.422Z,0
2017-12-24T23:14:07.854Z,0
2017-12-24T23:16:09.256Z,0
2017-12-24T23:18:10.812Z,0
2017-12-24T23:20:12.220Z,0
2017-12-24T23:22:13.636Z,0
2017-12-24T23:24:15.415Z,0
2017-12-24T23:26:16.843Z,0
2017-12-24T23:28:18.252Z,0
2017-12-24T23:30:19.661Z,0
2017-12-24T23:32:21.077Z,0
2017-12-24T23:34:22.489Z,0
2017-12-24T23:36:23.900Z,0
2017-12-24T23:38:25.309Z,0
2017-12-24T23:40:26.777Z,0
2017-12-24T23:42:28.185Z,0
2017-12-24T23:44:29.605Z,0
2017-12-24T23:46:31.020Z,0
2017-12-24T23:48:32.432Z,0
2017-12-24T23:50:33.841Z,0
2017-12-24T23:52:35.259Z,0
2017-12-24T23:54:36.670Z,0
2017-12-24T23:56:38.082Z,0
2017-12-24T23:58:39.489Z,0
